Flight Track Log - Related Links

Times and Time Zones

All times are in EDT time to prevent confusion due to time zone crossing. See the MTN8305 flight status page for this flight to view local times or setup timezone preferences in your user account.

Time Position Orientation Groundspeed Altitude Reporting Facility
EDT Latitude Longitude Course Direction KTS MPH feet Rate Location/Type
Wed 04:10:22 AM 40.7167 -74.1500 303° West 110 127 1,200  Level New York TRACON
Wed 04:11:22 AM 40.7333 -74.1833 303° West 129 148 2,200 1,000 Climbing New York TRACON
Wed 04:12:22 AM 40.7167 -74.2333 246° West 124 143 3,200 857 Climbing New York TRACON
Wed 04:13:28 AM 40.7000 -74.2833 246° West 129 148 4,000 381 Climbing New York TRACON
Wed 04:14:28 AM 40.7000 -74.3333 270° West 168 193 4,000  Level New York TRACON
Wed 04:15:28 AM 40.6833 -74.4000 252° West 176 203 4,000  Level New York TRACON
Wed 04:16:22 AM 40.6667 -74.4667 252° West 177 204 4,000  Level New York TRACON
Wed 04:17:16 AM 40.6667 -74.5167 270° West 179 206 4,000  Level New York TRACON
Wed 04:18:16 AM 40.6500 -74.5833 252° West 178 205 4,000  Level New York TRACON
Wed 04:19:16 AM 40.6333 -74.6333 246° West 177 204 4,000  Level New York TRACON
Wed 04:20:16 AM 40.6167 -74.7000 252° West 180 207 4,000  Level New York TRACON
Wed 04:21:11 AM 40.6167 -74.7667 270° West 180 207 4,000  Level New York TRACON
Wed 04:23:00 AM 40.5936 -74.8533 251° West  Level FlightAware Approximate
Wed 04:28:10 AM 40.5500 -75.2167 261° West 178 205 4,000  Level Philadelphia TRACON
Wed 04:29:16 AM 40.5167 -75.2500 217° Southwest 156 180 4,000  Level Philadelphia TRACON
Wed 04:30:00 AM 40.5363 -75.2043 281° West  Level FlightAware Approximate
Wed 04:30:16 AM 40.4833 -75.3000 229° Southwest 165 190 4,000  Level Philadelphia TRACON
Wed 04:31:00 AM 40.5298 -75.2576 261° West  Level FlightAware Approximate
Wed 04:31:16 AM 40.4500 -75.3333 217° Southwest 163 188 4,000  Level Philadelphia TRACON
Wed 04:32:00 AM 40.5233 -75.3109 261° West  Level FlightAware Approximate
Wed 04:32:16 AM 40.4000 -75.3667 207° Southwest 165 190 4,000  Level Philadelphia TRACON
Wed 04:33:00 AM 40.5168 -75.3642 261° West  Level FlightAware Approximate
Wed 04:33:16 AM 40.3667 -75.4167 229° Southwest 169 194 4,000  Level Philadelphia TRACON
Wed 04:34:16 AM 40.3333 -75.4500 217° Southwest 162 186 4,000  Level Philadelphia TRACON
Wed 04:35:16 AM 40.3000 -75.4833 217° Southwest 163 188 4,000  Level Philadelphia TRACON
Wed 04:36:16 AM 40.2667 -75.5167 217° Southwest 164 189 4,000  Level Philadelphia TRACON
Wed 04:37:16 AM 40.2333 -75.5667 229° Southwest 161 185 4,000 50 Level Philadelphia TRACON
Wed 04:38:16 AM 40.2000 -75.6000 217° Southwest 162 186 4,100 50 Climbing Philadelphia TRACON
Wed 04:39:16 AM 40.1667 -75.6333 217° Southwest 164 189 4,100 -50 Level Philadelphia TRACON
Wed 04:40:16 AM 40.1333 -75.6667 217° Southwest 164 189 4,000 -50 Descending Philadelphia TRACON
Wed 04:41:16 AM 40.1000 -75.7167 229° Southwest 158 182 4,000  Level Philadelphia TRACON
Wed 04:42:16 AM 40.0500 -75.7500 207° Southwest 161 185 4,000  Level Philadelphia TRACON
Wed 04:43:22 AM 40.0167 -75.7833 217° Southwest 163 188 4,000 48 Level Philadelphia TRACON
Wed 04:44:22 AM 39.9833 -75.8167 217° Southwest 164 189 4,100 48 Climbing Philadelphia TRACON
Wed 04:45:28 AM 39.9500 -75.8667 229° Southwest 162 186 4,100  Level Philadelphia TRACON
Wed 04:46:22 AM 39.9167 -75.9000 217° Southwest 163 188 4,100  Level Philadelphia TRACON
Wed 04:47:22 AM 39.8833 -75.9333 218° Southwest 163 188 4,100 -35 Level Philadelphia TRACON
Wed 04:49:12 AM 39.8167 -76.0000 218° Southwest 163 188 4,000 -35 Descending Potomac TRACON
Wed 04:50:12 AM 39.7833 -76.0500 229° Southwest 162 186 4,000  Level Potomac TRACON
Wed 04:51:12 AM 39.7500 -76.0833 218° Southwest 163 188 4,000  Level Potomac TRACON
Wed 04:52:07 AM 39.7167 -76.1167 218° Southwest 164 189 4,000  Level Potomac TRACON
Wed 04:53:07 AM 39.7000 -76.1667 247° West 165 190 4,000  Level Potomac TRACON
Wed 04:54:07 AM 39.6667 -76.2167 229° Southwest 164 189 4,000  Level Potomac TRACON
Wed 04:55:07 AM 39.6500 -76.2667 247° West 164 189 4,000  Level Potomac TRACON
Wed 04:56:07 AM 39.6167 -76.3167 229° Southwest 163 188 4,000  Level Potomac TRACON
Wed 04:57:07 AM 39.6000 -76.3667 247° West 163 188 4,000  Level Potomac TRACON
Wed 04:58:07 AM 39.5667 -76.4167 229° Southwest 163 188 4,000 -100 Level Potomac TRACON
Wed 04:59:07 AM 39.5500 -76.4667 247° West 167 192 3,800 -400 Descending Potomac TRACON
Wed 05:00:07 AM 39.5167 -76.5167 207° Southwest 173 199 3,200 -400 Descending Potomac TRACON
Wed 05:01:00 AM 39.4784 -76.5054 207° Southwest  Level Estimated
Wed 05:01:07 AM 39.4833 -76.5667 229° Southwest 166 191 3,000  Level Potomac TRACON
Wed 05:02:07 AM 39.4667 -76.6000 237° Southwest 157 181 3,000  Level Potomac TRACON
Wed 05:03:07 AM 39.4333 -76.6500 229° Southwest 159 183 3,000  Level Potomac TRACON
Wed 05:04:07 AM 39.4167 -76.7000 247° West 159 183 3,000  Level Potomac TRACON
Wed 05:05:07 AM 39.3833 -76.7500 229° Southwest 161 185 3,000  Level Potomac TRACON
Wed 05:06:07 AM 39.3667 -76.8000 247° West 161 185 3,000  Level Potomac TRACON
Wed 05:07:07 AM 39.3333 -76.8000 180° South 158 182 3,000 -248 Level Potomac TRACON
Wed 05:08:08 AM 39.3000 -76.7667 142° Southeast 164 189 2,500 -545 Descending Potomac TRACON
Wed 05:09:08 AM 39.2667 -76.7333 142° Southeast 166 191 1,900 -750 Descending Potomac TRACON
Wed 05:10:08 AM 39.2167 -76.7000 153° Southeast 170 196 1,000 -900 Descending Potomac TRACON
Wed 05:12:00 AM 39.1754 -76.6683 184° South  Level Estimated
Wed 05:19:00 AM 39.1754 -76.6683 184° South  Level Estimated
Wed 05:20:00 AM 39.1754 -76.6683 184° South  Level Estimated
Wed 05:21:00 AM 39.1754 -76.6683 184° South  Level Estimated
Wed 05:22:00 AM 39.1754 -76.6683 184° South  Level Estimated

Login

Don't have an account? Register now (free) for customized features, flight alerts, and more!